Time;durP1;ratioP1;P1;durP2;ratioP2;P2;SDS_P1;SDS_P2;PMS_P1;PMS_P2;Temp;Humidity;BMP_temperature;BMP_pressure;BME280_temperature;BME280_humidity;BME280_pressure;Samples;Min_cycle;Max_cycle;Signal;HPM_P1;HPM_P2
2022/09/13 00:01:31;;;;;;;8.02;5.85;;;20.30;99.90;;;;;;4997049;28;20223;-75
2022/09/13 00:03:58;;;;;;;8.18;6.22;;;20.30;99.90;;;;;;5000968;28;20203;-77
2022/09/13 00:06:25;;;;;;;9.48;7.13;;;20.30;99.90;;;;;;4996627;28;20696;-77
2022/09/13 00:08:53;;;;;;;9.35;6.78;;;20.30;99.90;;;;;;4997254;28;20209;-76
2022/09/13 00:11:25;;;;;;;10.23;6.97;;;20.30;99.90;;;;;;4992237;28;20261;-77
2022/09/13 00:13:54;;;;;;;9.55;6.15;;;20.30;99.90;;;;;;4999613;28;20238;-76
2022/09/13 00:16:23;;;;;;;7.25;6.18;;;20.20;99.90;;;;;;5003938;28;20242;-77
2022/09/13 00:18:52;;;;;;;6.63;5.95;;;20.30;99.90;;;;;;5003284;28;20221;-76
2022/09/13 00:21:21;;;;;;;8.23;6.43;;;20.20;99.90;;;;;;4982116;28;20233;-76
2022/09/13 00:23:54;;;;;;;10.40;6.40;;;20.20;99.90;;;;;;5003244;28;20568;-78
2022/09/13 00:26:23;;;;;;;8.93;6.05;;;20.20;99.90;;;;;;5002935;28;20628;-77
2022/09/13 00:28:52;;;;;;;8.63;6.85;;;20.20;99.90;;;;;;5001831;28;20624;-75
2022/09/13 00:31:22;;;;;;;7.95;6.35;;;20.20;99.90;;;;;;4981416;28;20199;-76
2022/09/13 00:33:49;;;;;;;10.00;6.75;;;20.20;99.90;;;;;;4982100;28;20219;-77
2022/09/13 00:36:16;;;;;;;9.65;6.70;;;20.20;99.90;;;;;;5005634;28;20245;-76
2022/09/13 00:38:43;;;;;;;8.05;6.57;;;20.20;99.90;;;;;;5002800;28;20382;-75
2022/09/13 00:41:14;;;;;;;9.55;7.72;;;20.20;99.90;;;;;;5000095;28;20599;-77
2022/09/13 00:43:45;;;;;;;9.13;7.35;;;20.20;99.90;;;;;;5003004;28;20230;-76
2022/09/13 00:46:21;;;;;;;9.68;6.60;;;20.10;99.90;;;;;;5003266;28;20769;-77
2022/09/13 00:48:54;;;;;;;10.40;7.65;;;20.20;99.90;;;;;;5008044;28;20211;-75
2022/09/13 00:51:21;;;;;;;11.07;7.35;;;20.10;99.90;;;;;;5000294;28;20678;-76
2022/09/13 00:53:53;;;;;;;9.30;6.90;;;20.10;99.90;;;;;;4998746;28;20257;-75
2022/09/13 00:56:28;;;;;;;10.65;7.25;;;20.10;99.90;;;;;;5003668;28;20270;-76
2022/09/13 00:59:00;;;;;;;12.98;7.40;;;20.10;99.90;;;;;;5005090;28;20312;-74
2022/09/13 01:01:39;;;;;;;9.23;7.55;;;20.10;99.90;;;;;;5003187;28;20234;-76
2022/09/13 01:04:09;;;;;;;8.77;7.10;;;20.00;99.90;;;;;;5011505;28;20194;-75
2022/09/13 01:06:40;;;;;;;9.98;7.03;;;20.00;99.90;;;;;;5001272;28;20241;-77
2022/09/13 01:09:10;;;;;;;9.75;6.85;;;20.00;99.90;;;;;;5009251;28;20219;-76
2022/09/13 01:11:59;;;;;;;10.55;6.75;;;20.00;99.90;;;;;;4999169;28;20266;-75
2022/09/13 01:14:26;;;;;;;9.45;7.30;;;20.00;99.90;;;;;;5005782;28;20245;-76
2022/09/13 01:16:54;;;;;;;11.82;7.38;;;20.00;99.90;;;;;;5002987;28;20329;-76
2022/09/13 01:19:21;;;;;;;8.30;6.72;;;20.00;99.90;;;;;;4984582;28;20199;-77
2022/09/13 01:22:11;;;;;;;10.27;8.15;;;19.90;99.90;;;;;;4998591;28;20338;-76
2022/09/13 01:25:03;;;;;;;9.73;8.73;;;19.90;99.90;;;;;;5001738;28;20209;-76
2022/09/13 01:27:51;;;;;;;10.23;8.70;;;19.80;99.90;;;;;;5004992;28;20226;-77
2022/09/13 01:30:25;;;;;;;12.48;9.70;;;19.80;99.90;;;;;;5005068;28;20305;-76
2022/09/13 01:33:18;;;;;;;13.10;10.32;;;19.70;99.90;;;;;;4998122;28;20217;-76
2022/09/13 01:35:54;;;;;;;11.65;9.45;;;19.70;99.90;;;;;;5004302;28;20582;-75
2022/09/13 01:38:38;;;;;;;14.40;10.25;;;19.70;99.90;;;;;;5004483;28;20325;-75
2022/09/13 01:41:08;;;;;;;20.38;10.55;;;19.70;99.90;;;;;;5002691;28;20289;-76
2022/09/13 01:43:41;;;;;;;13.73;10.27;;;19.60;99.90;;;;;;4983751;28;20214;-76
2022/09/13 01:46:22;;;;;;;15.77;11.88;;;19.60;99.90;;;;;;5001015;28;20239;-76
2022/09/13 01:49:05;;;;;;;12.32;10.57;;;19.50;99.90;;;;;;5000895;28;20676;-75
2022/09/13 01:51:37;;;;;;;14.25;10.70;;;19.50;99.90;;;;;;4999594;28;20211;-75
2022/09/13 01:54:27;;;;;;;12.80;10.88;;;19.40;99.90;;;;;;5002527;28;20261;-77
2022/09/13 01:57:06;;;;;;;14.52;10.77;;;19.40;99.90;;;;;;5001189;28;20664;-76
2022/09/13 01:59:45;;;;;;;13.32;10.32;;;19.40;99.90;;;;;;4983279;28;20575;-76
2022/09/13 02:02:30;;;;;;;14.02;10.80;;;19.30;99.90;;;;;;5004007;28;20701;-77
2022/09/13 02:05:13;;;;;;;14.13;11.00;;;19.30;99.90;;;;;;5000078;28;20217;-76
2022/09/13 02:07:44;;;;;;;14.95;11.20;;;19.30;99.90;;;;;;4998892;28;20218;-77
2022/09/13 02:10:25;;;;;;;15.40;11.88;;;19.20;99.90;;;;;;5004541;28;20608;-77
2022/09/13 02:12:54;;;;;;;16.75;11.90;;;19.20;99.90;;;;;;5001972;28;20290;-77
2022/09/13 02:15:28;;;;;;;14.70;11.95;;;19.20;99.90;;;;;;5001483;28;20234;-77
2022/09/13 02:18:07;;;;;;;15.15;11.75;;;19.20;99.90;;;;;;4984426;28;20209;-74
2022/09/13 02:20:39;;;;;;;20.25;12.90;;;19.10;99.90;;;;;;5001672;28;20289;-77
2022/09/13 02:23:15;;;;;;;16.00;12.77;;;19.10;99.90;;;;;;5004072;28;20245;-76
2022/09/13 02:25:45;;;;;;;20.05;12.98;;;19.10;99.90;;;;;;5000165;28;20207;-76
2022/09/13 02:28:18;;;;;;;19.25;13.40;;;19.00;99.90;;;;;;4987864;28;20214;-76
2022/09/13 02:30:50;;;;;;;17.40;13.30;;;19.00;99.90;;;;;;5005493;28;20655;-76
2022/09/13 02:33:45;;;;;;;17.55;12.25;;;19.00;99.90;;;;;;4999185;28;20311;-76
2022/09/13 02:36:18;;;;;;;19.52;12.60;;;19.10;99.90;;;;;;5004350;28;20269;-76
2022/09/13 02:38:55;;;;;;;20.80;13.43;;;19.10;99.90;;;;;;5000666;28;20774;-74
2022/09/13 02:41:45;;;;;;;16.27;12.73;;;19.10;99.90;;;;;;4998811;28;20714;-76
2022/09/13 02:44:22;;;;;;;17.20;11.95;;;19.20;99.90;;;;;;4979654;28;20460;-77
2022/09/13 02:47:20;;;;;;;18.02;13.45;;;19.20;99.90;;;;;;5000472;28;20231;-77
2022/09/13 02:50:24;;;;;;;18.77;13.48;;;19.20;99.90;;;;;;4959204;28;20203;-77
2022/09/13 02:52:57;;;;;;;21.25;14.02;;;19.20;99.90;;;;;;4953945;28;20206;-76
2022/09/13 02:55:29;;;;;;;16.83;12.52;;;19.20;99.90;;;;;;4981434;28;20287;-76
2022/09/13 02:58:25;;;;;;;20.50;13.75;;;19.20;99.90;;;;;;4997280;28;20306;-77
2022/09/13 03:00:54;;;;;;;18.10;12.55;;;19.20;99.90;;;;;;4976531;28;20693;-77
2022/09/13 03:03:22;;;;;;;20.40;13.70;;;19.10;99.90;;;;;;4983128;28;20227;-75
2022/09/13 03:05:49;;;;;;;19.08;13.25;;;19.20;99.90;;;;;;4998756;28;20230;-76
2022/09/13 03:08:17;;;;;;;18.38;13.15;;;19.20;99.90;;;;;;5000586;28;20222;-76
2022/09/13 03:11:17;;;;;;;21.02;13.45;;;19.20;99.90;;;;;;4986343;28;20307;-74
2022/09/13 03:13:47;;;;;;;21.15;13.68;;;19.20;99.90;;;;;;4997518;28;20663;-76
2022/09/13 03:16:43;;;;;;;21.30;12.80;;;19.10;99.90;;;;;;5000287;28;20682;-76
2022/09/13 03:19:34;;;;;;;15.82;11.82;;;19.10;99.90;;;;;;5001781;28;20200;-76
2022/09/13 03:22:35;;;;;;;18.08;12.68;;;19.10;99.90;;;;;;4997380;28;20223;-75
2022/09/13 03:25:08;;;;;;;18.35;12.93;;;19.10;99.90;;;;;;4996460;28;20207;-76
2022/09/13 03:27:41;;;;;;;18.27;13.30;;;19.10;99.90;;;;;;5000406;28;20207;-76
2022/09/13 03:30:11;;;;;;;18.90;13.95;;;19.10;99.90;;;;;;4999481;28;20299;-77
2022/09/13 03:32:44;;;;;;;19.33;12.95;;;19.10;99.90;;;;;;4997233;28;20217;-76
2022/09/13 03:35:53;;;;;;;16.05;11.65;;;19.10;99.90;;;;;;5001106;28;20310;-76
2022/09/13 03:38:52;;;;;;;19.00;13.40;;;19.10;99.90;;;;;;4921940;29;20244;-77
2022/09/13 03:41:24;;;;;;;17.42;13.32;;;19.10;99.90;;;;;;4921249;29;20249;-75
2022/09/13 03:44:07;;;;;;;18.25;13.07;;;19.10;99.90;;;;;;4985016;28;20378;-76
2022/09/13 03:46:46;;;;;;;16.20;12.45;;;19.10;99.90;;;;;;5000934;28;20248;-76
2022/09/13 03:49:19;;;;;;;15.30;12.50;;;19.10;99.90;;;;;;4983054;28;20261;-76
2022/09/13 03:51:49;;;;;;;16.38;11.93;;;19.10;99.90;;;;;;4985170;28;20225;-75
2022/09/13 03:54:44;;;;;;;20.08;12.25;;;19.10;99.90;;;;;;5007703;28;20198;-76
2022/09/13 03:57:16;;;;;;;15.77;12.30;;;19.10;99.90;;;;;;5005482;28;20221;-75
2022/09/13 03:59:46;;;;;;;16.92;12.48;;;19.10;99.90;;;;;;4984943;28;20321;-76
2022/09/13 04:02:14;;;;;;;17.52;12.32;;;19.10;99.90;;;;;;4987025;28;20335;-76
2022/09/13 04:04:43;;;;;;;15.23;11.20;;;19.10;99.90;;;;;;5003582;28;20210;-76
2022/09/13 04:07:13;;;;;;;17.83;12.25;;;19.10;99.90;;;;;;5003005;28;20518;-76
2022/09/13 04:09:39;;;;;;;16.33;11.35;;;19.00;99.90;;;;;;5000665;28;20230;-76
2022/09/13 04:12:08;;;;;;;15.52;11.57;;;19.00;99.90;;;;;;4998657;28;20211;-77
2022/09/13 04:14:36;;;;;;;15.93;12.18;;;19.00;99.90;;;;;;5006840;28;20202;-75
2022/09/13 04:17:03;;;;;;;18.33;11.98;;;19.00;99.90;;;;;;5001785;28;20203;-77
2022/09/13 04:19:30;;;;;;;17.70;12.93;;;19.00;99.90;;;;;;5003510;28;20206;-76
2022/09/13 04:21:57;;;;;;;19.20;12.15;;;19.00;99.90;;;;;;5003189;28;20234;-76
2022/09/13 04:24:27;;;;;;;18.13;12.52;;;18.90;99.90;;;;;;5000858;28;20231;-75
2022/09/13 04:26:55;;;;;;;15.45;10.93;;;18.90;99.90;;;;;;5002722;28;20538;-76
2022/09/13 04:29:23;;;;;;;17.33;11.90;;;18.90;99.90;;;;;;4998275;28;20253;-75
2022/09/13 04:31:52;;;;;;;16.55;12.07;;;18.80;99.90;;;;;;5003198;28;20207;-76
2022/09/13 04:34:22;;;;;;;16.00;12.82;;;18.80;99.90;;;;;;5006715;28;20242;-75
2022/09/13 04:36:51;;;;;;;18.88;12.75;;;18.80;99.90;;;;;;5003596;28;20736;-75
2022/09/13 04:39:19;;;;;;;19.23;13.65;;;18.70;99.90;;;;;;5002836;28;20235;-78
2022/09/13 04:41:47;;;;;;;15.50;11.63;;;18.70;99.90;;;;;;5003354;28;20253;-75
2022/09/13 04:44:16;;;;;;;15.48;12.38;;;18.70;99.90;;;;;;5000603;28;20215;-76
2022/09/13 04:46:47;;;;;;;17.73;12.75;;;18.70;99.90;;;;;;5004110;28;20210;-76
2022/09/13 04:49:16;;;;;;;20.65;12.63;;;18.70;99.90;;;;;;4996595;28;20210;-76
2022/09/13 04:51:47;;;;;;;18.95;11.80;;;18.60;99.90;;;;;;5003633;28;20219;-75
2022/09/13 04:54:14;;;;;;;14.75;11.75;;;18.70;99.90;;;;;;4982441;28;20217;-75
2022/09/13 04:56:43;;;;;;;20.50;13.15;;;18.60;99.90;;;;;;5001086;28;20323;-76
2022/09/13 04:59:10;;;;;;;16.85;12.50;;;18.60;99.90;;;;;;4998958;28;20609;-76
2022/09/13 05:01:38;;;;;;;20.83;13.30;;;18.60;99.90;;;;;;4996612;28;20210;-75
2022/09/13 05:04:06;;;;;;;19.10;13.38;;;18.60;99.90;;;;;;4996324;28;20214;-76
2022/09/13 05:06:33;;;;;;;21.73;13.73;;;18.50;99.90;;;;;;5002936;28;20214;-77
2022/09/13 05:09:01;;;;;;;21.48;13.68;;;18.60;99.90;;;;;;4975630;28;20233;-78
2022/09/13 05:11:29;;;;;;;20.27;14.45;;;18.50;99.90;;;;;;4998244;28;20261;-75
2022/09/13 05:13:58;;;;;;;19.30;13.88;;;18.50;99.90;;;;;;5002019;28;20214;-76
2022/09/13 05:16:27;;;;;;;20.58;14.75;;;18.50;99.90;;;;;;4998311;28;20196;-75
2022/09/13 05:18:54;;;;;;;20.15;14.27;;;18.40;99.90;;;;;;4985596;28;20202;-76
2022/09/13 05:21:23;;;;;;;21.35;14.55;;;18.50;99.90;;;;;;5001805;28;20264;-76
2022/09/13 05:23:51;;;;;;;23.13;15.82;;;18.50;99.90;;;;;;4995935;28;20234;-75
2022/09/13 05:26:18;;;;;;;22.17;14.13;;;18.50;99.90;;;;;;4998859;28;20230;-76
2022/09/13 05:28:46;;;;;;;21.27;14.85;;;18.50;99.90;;;;;;4997915;28;20211;-76
2022/09/13 05:31:17;;;;;;;21.92;16.00;;;18.50;99.90;;;;;;5001447;28;20293;-76
2022/09/13 05:33:46;;;;;;;20.58;15.02;;;18.60;99.90;;;;;;5001035;28;20761;-77
2022/09/13 05:36:13;;;;;;;21.65;15.10;;;18.60;99.90;;;;;;4990935;28;20707;-77
2022/09/13 05:38:39;;;;;;;24.58;15.75;;;18.60;99.90;;;;;;4995970;28;20237;-76
2022/09/13 05:41:06;;;;;;;22.13;14.27;;;18.70;99.90;;;;;;4997142;28;20261;-77
2022/09/13 05:43:35;;;;;;;24.15;14.98;;;18.70;99.90;;;;;;5000786;28;20234;-78
2022/09/13 05:46:14;;;;;;;23.45;15.43;;;18.80;99.90;;;;;;4989733;28;20713;-74
2022/09/13 05:48:41;;;;;;;22.33;15.15;;;18.80;99.90;;;;;;5002957;28;20372;-81
2022/09/13 05:51:15;;;;;;;21.17;14.90;;;19.00;99.90;;;;;;4989414;28;20288;-80
2022/09/13 05:53:47;;;;;;;23.80;15.75;;;18.90;99.90;;;;;;5002273;28;20644;-81
2022/09/13 05:56:16;;;;;;;25.08;15.23;;;18.90;99.90;;;;;;4984379;28;20749;-81
2022/09/13 05:58:47;;;;;;;24.05;15.57;;;19.00;99.90;;;;;;5008753;28;20206;-81
2022/09/13 06:01:24;;;;;;;23.77;15.60;;;19.00;99.90;;;;;;4988555;28;20211;-81
2022/09/13 06:03:57;;;;;;;22.80;14.60;;;19.00;99.90;;;;;;5007355;28;20286;-82
2022/09/13 06:06:27;;;;;;;23.52;15.23;;;19.10;99.90;;;;;;5015181;28;20214;-82
2022/09/13 06:09:00;;;;;;;21.02;14.65;;;19.20;99.90;;;;;;5009291;28;20565;-81
2022/09/13 06:11:27;;;;;;;23.15;16.20;;;19.30;99.90;;;;;;5007957;28;20202;-84
2022/09/13 06:13:54;;;;;;;23.60;15.23;;;19.20;99.90;;;;;;5007171;28;20667;-82
2022/09/13 06:16:22;;;;;;;21.55;14.98;;;19.40;99.90;;;;;;4996757;28;20280;-82
2022/09/13 06:18:50;;;;;;;24.02;15.60;;;19.40;99.90;;;;;;4988758;28;20331;-83
2022/09/13 06:21:19;;;;;;;20.45;13.52;;;19.40;99.90;;;;;;4991810;28;20260;-82
2022/09/13 06:23:51;;;;;;;23.92;15.73;;;19.50;99.90;;;;;;5004970;28;20776;-82
2022/09/13 06:26:22;;;;;;;22.58;15.60;;;19.50;99.90;;;;;;4987696;28;20215;-84
2022/09/13 06:28:52;;;;;;;24.95;15.90;;;19.60;99.90;;;;;;5002840;28;20214;-85
2022/09/13 06:31:21;;;;;;;26.77;16.27;;;19.60;99.90;;;;;;4985050;28;20199;-84
2022/09/13 06:33:56;;;;;;;26.55;16.30;;;19.70;99.90;;;;;;5010205;28;20243;-85
2022/09/13 06:36:25;;;;;;;20.58;14.73;;;19.70;99.90;;;;;;4992565;28;20214;-86
2022/09/13 06:38:52;;;;;;;20.05;14.50;;;19.70;99.90;;;;;;5017304;28;20314;-83
2022/09/13 06:41:22;;;;;;;21.35;14.27;;;19.70;99.90;;;;;;5015024;28;20632;-82
2022/09/13 06:43:55;;;;;;;22.30;14.38;;;19.90;99.90;;;;;;4991829;28;20250;-82
2022/09/13 06:46:22;;;;;;;20.73;14.48;;;20.00;99.90;;;;;;5006066;28;20206;-82
2022/09/13 06:48:51;;;;;;;19.85;13.18;;;19.90;99.90;;;;;;4980139;28;20282;-83
2022/09/13 06:51:20;;;;;;;19.92;12.77;;;19.90;99.90;;;;;;5002009;28;20233;-83
2022/09/13 06:53:48;;;;;;;22.27;13.60;;;20.00;99.90;;;;;;4992703;28;20222;-83
2022/09/13 06:56:18;;;;;;;22.38;13.02;;;20.00;99.90;;;;;;5006870;28;20593;-83
2022/09/13 06:58:47;;;;;;;21.67;13.13;;;20.10;99.90;;;;;;5006430;28;20655;-83
2022/09/13 07:01:20;;;;;;;19.33;12.63;;;20.10;99.90;;;;;;4994009;28;20222;-85
2022/09/13 07:03:53;;;;;;;17.83;12.32;;;20.10;99.90;;;;;;5007399;28;20230;-84
2022/09/13 07:06:23;;;;;;;18.05;12.00;;;20.20;99.90;;;;;;4993411;28;20256;-84
2022/09/13 07:08:51;;;;;;;18.20;11.45;;;20.20;99.90;;;;;;4987255;28;20234;-81
2022/09/13 07:11:20;;;;;;;17.08;12.20;;;20.30;99.90;;;;;;5005629;28;20325;-84
2022/09/13 07:13:53;;;;;;;18.27;11.48;;;20.30;99.90;;;;;;5001468;28;20199;-83
2022/09/13 07:16:22;;;;;;;17.33;11.60;;;20.30;99.90;;;;;;4988454;28;20422;-84
2022/09/13 07:18:53;;;;;;;15.63;11.15;;;20.40;99.90;;;;;;5001211;28;20269;-84
2022/09/13 07:21:21;;;;;;;16.65;11.77;;;20.40;99.90;;;;;;4982672;28;20719;-82
2022/09/13 07:23:49;;;;;;;24.50;15.95;;;20.40;99.90;;;;;;4983155;28;20227;-85
2022/09/13 07:26:16;;;;;;;25.85;17.38;;;20.40;99.90;;;;;;4985315;28;20207;-83
2022/09/13 07:28:46;;;;;;;28.85;18.25;;;20.30;99.90;;;;;;5000889;28;20242;-82
2022/09/13 07:31:16;;;;;;;30.38;18.55;;;20.30;99.90;;;;;;5006461;28;20702;-84
2022/09/13 07:33:44;;;;;;;28.75;19.33;;;20.30;99.90;;;;;;4982578;28;20639;-83
2022/09/13 07:36:12;;;;;;;26.05;17.98;;;20.20;99.90;;;;;;4984654;28;20329;-83
2022/09/13 07:38:41;;;;;;;26.05;18.92;;;20.30;99.90;;;;;;4977514;28;20239;-82
2022/09/13 07:41:14;;;;;;;25.50;16.80;;;20.20;99.90;;;;;;4982550;28;20317;-83
2022/09/13 07:43:42;;;;;;;28.02;18.33;;;20.20;99.90;;;;;;5006543;28;20754;-82
2022/09/13 07:46:13;;;;;;;29.05;17.10;;;20.40;99.90;;;;;;5008702;28;20219;-81
2022/09/13 07:48:43;;;;;;;29.50;17.88;;;20.40;99.90;;;;;;5001821;28;20219;-80
2022/09/13 07:51:09;;;;;;;28.92;18.35;;;20.50;99.90;;;;;;5000271;28;20746;-82
2022/09/13 07:53:38;;;;;;;25.70;16.58;;;20.60;99.90;;;;;;5016738;28;20719;-83
2022/09/13 07:56:07;;;;;;;27.33;17.02;;;20.60;99.90;;;;;;5009536;28;20636;-82
2022/09/13 07:58:35;;;;;;;24.42;16.92;;;20.60;99.90;;;;;;5007866;28;20210;-82
2022/09/13 08:01:25;;;;;;;21.15;15.40;;;20.60;99.90;;;;;;5005491;28;20219;-83
2022/09/13 08:04:07;;;;;;;23.48;15.00;;;20.70;99.90;;;;;;5004632;28;20273;-83
2022/09/13 08:06:36;;;;;;;22.20;12.43;;;20.70;99.90;;;;;;5006585;28;20838;-81
2022/09/13 08:09:05;;;;;;;21.15;12.50;;;20.80;99.90;;;;;;5004130;28;20298;-81
2022/09/13 08:11:35;;;;;;;20.10;10.27;;;20.80;99.90;;;;;;5013599;28;20202;-83
2022/09/13 08:14:03;;;;;;;16.25;9.55;;;20.90;99.90;;;;;;4987635;28;20281;-82
2022/09/13 08:16:31;;;;;;;20.23;8.57;;;21.10;99.90;;;;;;4993069;28;20253;-83
2022/09/13 08:19:01;;;;;;;14.48;7.68;;;21.20;99.90;;;;;;4991128;28;20213;-82
2022/09/13 08:21:34;;;;;;;16.67;8.50;;;21.30;99.90;;;;;;4984714;28;20250;-83
2022/09/13 08:24:02;;;;;;;10.25;7.22;;;21.40;99.90;;;;;;4987242;28;20238;-83
2022/09/13 08:26:31;;;;;;;16.80;8.10;;;21.60;99.90;;;;;;4992368;28;20214;-82
2022/09/13 08:29:01;;;;;;;13.88;7.28;;;21.70;99.90;;;;;;5009882;28;20210;-82
2022/09/13 08:31:32;;;;;;;14.13;8.40;;;21.90;99.90;;;;;;4992186;28;20245;-83
2022/09/13 08:33:59;;;;;;;14.20;7.60;;;22.10;99.90;;;;;;5007471;28;20747;-82
2022/09/13 08:36:27;;;;;;;12.35;8.13;;;22.30;99.90;;;;;;5010092;28;20253;-83
2022/09/13 08:38:59;;;;;;;13.93;7.93;;;22.60;99.90;;;;;;5026386;28;20276;-83
2022/09/13 08:41:43;;;;;;;10.38;6.70;;;23.00;99.90;;;;;;5008142;28;20211;-84
2022/09/13 08:44:25;;;;;;;11.75;7.15;;;23.40;99.90;;;;;;5011860;28;20257;-81
2022/09/13 08:46:59;;;;;;;7.78;6.25;;;23.60;99.90;;;;;;5007990;28;20769;-83
2022/09/13 08:49:31;;;;;;;11.95;6.25;;;23.90;99.90;;;;;;4994374;28;20214;-84
2022/09/13 08:52:04;;;;;;;7.57;5.28;;;24.20;99.90;;;;;;5008949;28;20272;-83
2022/09/13 08:54:32;;;;;;;5.70;5.10;;;24.30;99.90;;;;;;4987674;28;20207;-82
2022/09/13 08:57:16;;;;;;;7.80;4.95;;;24.30;99.90;;;;;;5028834;28;20210;-82
2022/09/13 08:59:59;;;;;;;9.73;5.00;;;24.10;99.90;;;;;;5012865;28;20239;-83
2022/09/13 09:02:59;;;;;;;9.13;4.97;;;24.00;99.90;;;;;;5012149;28;20218;-83
2022/09/13 09:05:29;;;;;;;8.07;5.43;;;23.90;99.90;;;;;;4993305;28;20227;-83
2022/09/13 09:08:01;;;;;;;6.53;4.88;;;23.80;99.90;;;;;;5002399;28;20261;-81
2022/09/13 09:10:41;;;;;;;9.25;4.60;;;23.70;99.90;;;;;;4998686;28;20203;-83
2022/09/13 09:13:14;;;;;;;6.88;4.13;;;23.50;99.90;;;;;;4984979;28;20207;-83
2022/09/13 09:15:45;;;;;;;8.45;4.22;;;23.50;99.90;;;;;;5001144;28;20261;-82
2022/09/13 09:18:26;;;;;;;5.78;3.35;;;23.50;99.90;;;;;;4982750;28;20219;-83
2022/09/13 09:20:56;;;;;;;4.25;3.33;;;23.60;99.90;;;;;;4983851;28;20591;-82
2022/09/13 09:23:38;;;;;;;4.97;2.92;;;23.70;99.90;;;;;;4999618;28;20310;-81
2022/09/13 09:26:19;;;;;;;5.80;3.17;;;23.60;99.90;;;;;;4990053;28;20223;-82
2022/09/13 09:28:59;;;;;;;3.75;2.45;;;23.60;99.90;;;;;;4996870;28;20567;-82
2022/09/13 09:31:58;;;;;;;3.95;2.35;;;23.50;99.90;;;;;;4987716;28;20628;-83
2022/09/13 09:34:41;;;;;;;3.80;2.25;;;23.50;99.90;;;;;;5001670;28;20222;-84
2022/09/13 09:37:29;;;;;;;2.83;2.15;;;23.50;99.90;;;;;;5000577;28;20230;-83
2022/09/13 09:40:06;;;;;;;5.90;2.40;;;23.50;99.90;;;;;;4985226;28;20726;-83
2022/09/13 09:42:48;;;;;;;5.07;2.10;;;23.70;99.90;;;;;;4998626;28;20222;-85
2022/09/13 09:45:26;;;;;;;3.83;1.88;;;24.00;99.90;;;;;;5001447;28;20757;-83
2022/09/13 09:47:54;;;;;;;3.42;1.85;;;24.30;99.90;;;;;;5000740;28;20663;-82
2022/09/13 09:50:29;;;;;;;2.33;2.08;;;24.50;99.90;;;;;;4982910;28;20224;-82
2022/09/13 09:53:17;;;;;;;4.20;1.80;;;24.50;99.90;;;;;;4998144;28;20293;-81
2022/09/13 09:55:50;;;;;;;2.10;1.58;;;24.50;99.90;;;;;;4999424;28;20290;-84
2022/09/13 09:58:34;;;;;;;2.45;1.73;;;24.40;99.90;;;;;;4981516;28;20707;-83
2022/09/13 10:01:01;;;;;;;4.32;1.23;;;24.40;99.90;;;;;;5009226;28;20311;-82
2022/09/13 10:03:32;;;;;;;2.45;1.15;;;24.40;99.90;;;;;;4998326;28;20241;-83
2022/09/13 10:06:07;;;;;;;1.98;1.33;;;24.30;99.90;;;;;;5000451;28;20262;-82
2022/09/13 10:08:39;;;;;;;1.65;1.23;;;24.30;99.90;;;;;;4998813;28;20222;-82
2022/09/13 10:11:08;;;;;;;2.95;1.40;;;24.20;99.90;;;;;;4979395;28;20297;-83
2022/09/13 10:13:37;;;;;;;4.93;1.40;;;24.10;99.90;;;;;;5001994;28;20321;-83
2022/09/13 10:16:26;;;;;;;2.30;1.58;;;24.10;99.90;;;;;;4987288;28;20254;-81
2022/09/13 10:18:54;;;;;;;3.42;1.63;;;24.20;99.90;;;;;;5002586;28;20218;-82
2022/09/13 10:21:25;;;;;;;7.53;1.67;;;24.20;99.90;;;;;;4966079;28;20214;-82
2022/09/13 10:24:17;;;;;;;5.65;2.03;;;24.40;99.90;;;;;;4985359;28;20233;-82
2022/09/13 10:26:45;;;;;;;1.90;1.15;;;24.50;99.90;;;;;;4985793;28;20286;-82
2022/09/13 10:29:17;;;;;;;3.17;1.20;;;24.40;99.90;;;;;;4986998;28;20692;-82
2022/09/13 10:31:48;;;;;;;3.50;1.23;;;24.30;99.90;;;;;;5009443;28;20223;-83
2022/09/13 10:34:28;;;;;;;1.25;1.08;;;24.10;99.90;;;;;;5009863;28;20234;-82
2022/09/13 10:37:22;;;;;;;1.88;1.20;;;24.10;99.90;;;;;;5012887;28;20243;-83
2022/09/13 10:40:06;;;;;;;2.40;1.73;;;24.00;99.90;;;;;;5013525;28;20290;-82
2022/09/13 10:42:34;;;;;;;2.10;1.40;;;23.90;99.90;;;;;;5011946;28;20190;-83
2022/09/13 10:45:17;;;;;;;1.88;1.27;;;24.10;99.90;;;;;;5023770;28;20298;-82
2022/09/13 10:47:50;;;;;;;2.78;1.15;;;24.20;99.90;;;;;;5015675;28;20222;-83
2022/09/13 10:50:21;;;;;;;2.05;0.90;;;24.40;99.90;;;;;;5002914;28;20640;-83
2022/09/13 10:52:59;;;;;;;2.17;1.30;;;24.60;99.90;;;;;;5001942;28;20211;-83
2022/09/13 10:55:33;;;;;;;1.38;0.90;;;24.60;99.90;;;;;;5000450;28;20293;-82
2022/09/13 10:58:06;;;;;;;3.22;1.25;;;24.60;99.90;;;;;;4989073;28;20296;-82
2022/09/13 11:00:58;;;;;;;4.45;1.10;;;24.60;99.90;;;;;;4996702;28;20215;-83
2022/09/13 11:03:43;;;;;;;3.45;1.13;;;24.50;99.90;;;;;;4988347;28;20206;-84
2022/09/13 11:06:55;;;;;;;2.58;1.10;;;24.50;99.90;;;;;;4981796;28;20321;-82
2022/09/13 11:09:33;;;;;;;2.40;0.90;;;24.60;99.90;;;;;;4998606;28;20217;-82
2022/09/13 11:12:44;;;;;;;2.50;1.00;;;24.70;99.90;;;;;;5001026;28;20207;-83
2022/09/13 11:15:17;;;;;;;1.45;0.98;;;24.60;99.90;;;;;;4999434;28;20270;-83
2022/09/13 11:18:10;;;;;;;2.17;0.90;;;24.70;99.90;;;;;;4983024;28;20202;-83
2022/09/13 11:20:39;;;;;;;1.83;0.90;;;24.80;99.90;;;;;;5013027;28;20214;-82
2022/09/13 11:23:09;;;;;;;1.55;0.70;;;24.70;99.90;;;;;;5002036;28;20271;-83
2022/09/13 11:25:55;;;;;;;1.88;1.10;;;24.70;99.90;;;;;;5008484;28;20257;-84
2022/09/13 11:29:00;;;;;;;3.22;1.00;;;24.80;99.90;;;;;;4994342;28;20626;-83
2022/09/13 11:31:39;;;;;;;1.30;0.90;;;24.90;99.90;;;;;;4965180;28;20207;-82
2022/09/13 11:34:36;;;;;;;2.47;0.75;;;25.10;99.90;;;;;;4988493;28;20213;-83
2022/09/13 11:37:38;;;;;;;2.45;1.10;;;25.30;99.90;;;;;;4990210;28;20218;-83
2022/09/13 11:40:27;;;;;;;2.30;1.10;;;25.40;99.90;;;;;;4985079;28;20279;-83
2022/09/13 11:43:24;;;;;;;2.70;0.90;;;25.40;99.90;;;;;;4987371;28;20208;-84
2022/09/13 11:46:06;;;;;;;2.42;1.10;;;25.60;99.90;;;;;;4971595;28;20207;-84
2022/09/13 11:48:51;;;;;;;1.60;0.93;;;25.60;99.90;;;;;;4982532;28;20223;-83
2022/09/13 11:51:50;;;;;;;2.55;1.15;;;25.60;99.90;;;;;;4968237;28;20223;-83
2022/09/13 11:54:43;;;;;;;3.42;1.58;;;25.50;99.90;;;;;;4970861;28;20223;-83
2022/09/13 11:57:17;;;;;;;5.05;0.95;;;25.40;99.90;;;;;;4963790;28;20303;-84
2022/09/13 11:59:46;;;;;;;2.80;1.20;;;25.40;99.90;;;;;;4969692;28;20208;-83
2022/09/13 12:02:42;;;;;;;5.15;1.30;;;25.30;99.90;;;;;;4980799;28;20238;-84
2022/09/13 12:05:21;;;;;;;2.58;1.20;;;25.40;99.90;;;;;;4972718;28;20230;-84
2022/09/13 12:08:04;;;;;;;3.38;1.10;;;25.30;99.90;;;;;;4982203;28;20654;-84
2022/09/13 12:10:37;;;;;;;4.38;1.42;;;25.30;99.90;;;;;;4987396;28;20270;-84
2022/09/13 12:13:11;;;;;;;3.33;0.98;;;25.30;99.90;;;;;;4971950;28;20278;-83
2022/09/13 12:15:40;;;;;;;4.55;1.13;;;25.40;99.90;;;;;;4992208;28;20266;-83
2022/09/13 12:18:18;;;;;;;3.22;1.02;;;25.60;99.90;;;;;;4968148;28;20207;-82
2022/09/13 12:20:50;;;;;;;1.38;0.85;;;25.80;99.90;;;;;;4973057;28;20388;-84
2022/09/13 12:23:34;;;;;;;1.75;0.88;;;25.90;99.90;;;;;;4964542;28;20418;-82
2022/09/13 12:26:44;;;;;;;2.33;1.48;;;26.00;99.90;;;;;;4984515;28;20291;-83
2022/09/13 12:29:27;;;;;;;3.10;1.30;;;26.10;99.90;;;;;;4902505;29;20203;-83
2022/09/13 12:32:02;;;;;;;1.23;0.80;;;26.00;99.90;;;;;;4908890;29;20216;-84
2022/09/13 12:34:59;;;;;;;2.17;0.80;;;25.90;99.90;;;;;;4957650;28;20250;-84
2022/09/13 12:37:35;;;;;;;2.72;1.33;;;25.70;99.90;;;;;;4992079;28;20215;-85
2022/09/13 12:40:09;;;;;;;4.00;1.10;;;25.60;99.90;;;;;;5007798;28;20222;-83
2022/09/13 12:43:01;;;;;;;2.38;0.95;;;25.50;99.90;;;;;;4996181;28;20211;-84
2022/09/13 12:45:47;;;;;;;3.33;1.17;;;25.40;99.90;;;;;;5006918;28;20234;-85
2022/09/13 12:48:39;;;;;;;2.72;0.90;;;25.40;99.90;;;;;;4987191;28;20221;-85
2022/09/13 12:51:11;;;;;;;3.13;1.20;;;25.40;99.90;;;;;;4997473;28;20667;-84
2022/09/13 12:54:16;;;;;;;3.50;1.00;;;25.50;99.90;;;;;;4985008;28;20215;-84
2022/09/13 12:57:09;;;;;;;3.97;1.40;;;25.70;99.90;;;;;;4997885;28;20207;-83
2022/09/13 13:00:10;;;;;;;4.18;1.20;;;25.90;99.90;;;;;;5002846;28;20238;-84
2022/09/13 13:02:59;;;;;;;2.35;0.93;;;25.90;99.90;;;;;;5006319;28;20301;-84
2022/09/13 13:05:30;;;;;;;3.08;1.10;;;25.80;99.90;;;;;;4983399;28;20308;-83
2022/09/13 13:08:04;;;;;;;3.22;1.02;;;25.80;99.90;;;;;;5002508;28;20242;-83
2022/09/13 13:10:35;;;;;;;1.98;1.00;;;25.70;99.90;;;;;;5004603;28;20212;-85
2022/09/13 13:13:14;;;;;;;4.53;1.10;;;25.60;99.90;;;;;;5000192;28;20209;-81
2022/09/13 13:15:42;;;;;;;1.80;0.77;;;25.40;99.90;;;;;;5002264;28;20294;-83
2022/09/13 13:18:43;;;;;;;4.22;1.00;;;25.30;99.90;;;;;;5006966;28;20237;-82